Hk Delight — 3FNE4 — position and weather

sailwx.info

Track history (hours):
 
Tides and Currents Weather Stations Pressure Air Temp Water Temp Dewpoint Dewpoint Depression Visibility Wind Speed Wind Dir Waves Ship Positions

Hk Delight

Last reported at 2017-Oct-19 20:17 UTC. Time now 2017-Nov-22 02:06 UTC.
Position N 22°34' W 112°41'.
Warning: this ship's position is 33 days out of date.

Length 210 m; draft 11.4 m.

Type: Cargo ship. MMSI: 352452610.

Date/timePositionNaut miles runAvg speedWind from/ knotsBaromVisibWave heightAir tempDewpointWater temp
2017-Oct-19 20:17N 22°34' W 112°41'2712.1
2017-Oct-19 18:01N 22°58' W 112°57'012.0
2017-Oct-19 18:00N 22°58' W 112°57'4413.3
2017-Oct-19 14:39N 23°35' W 113°23'511.8
2017-Oct-19 14:12N 23°40' W 113°26'511.7
2017-Oct-19 13:47N 23°44' W 113°29'711.6
2017-Oct-19 13:11N 23°50' W 113°33'1611.4
2017-Oct-19 11:46N 24°04' W 113°42'1811.4
2017-Oct-19 10:11N 24°19' W 113°52'211.2
2017-Oct-19 10:00N 24°21' W 113°54'1811.1
2017-Oct-19 08:23N 24°36' W 114°04'511.0
2017-Oct-19 07:54N 24°41' W 114°07'511.3
2017-Oct-19 07:29N 24°44' W 114°10'510.5
2017-Oct-19 07:00N 24°49' W 114°13'1811.1
2017-Oct-19 05:21N 25°04' W 114°24'1111.1
2017-Oct-19 04:19N 25°14' W 114°31'4811.4
2017-Oct-19 00:05N 25°55' W 114°59'111.7
2017-Oct-19 00:00N 25°56' W 114°59'611.7
2017-Oct-18 23:30N 26°01' W 115°03'1111.7
2017-Oct-18 22:33N 26°10' W 115°09'112.0
2017-Oct-18 22:28N 26°11' W 115°10'3411.6
2017-Oct-18 19:34N 26°40' W 115°30'111.4
2017-Oct-18 19:29N 26°40' W 115°30'611.7
2017-Oct-18 19:01N 26°45' W 115°34'612.1
2017-Oct-18 18:30N 26°50' W 115°37'1112.1
2017-Oct-18 17:38N 26°59' W 115°44'212.3
2017-Oct-18 17:30N 27°01' W 115°45'612.4
2017-Oct-18 17:00N 27°06' W 115°48'1112.3
2017-Oct-18 16:05N 27°15' W 115°55'112.6
2017-Oct-18 15:59N 27°17' W 115°56'612.3
2017-Oct-18 15:30N 27°22' W 115°59'712.1
2017-Oct-18 14:56N 27°27' W 116°03'1111.5
2017-Oct-18 13:56N 27°37' W 116°10'16512.1
2017-Oct-18 00:19N 30°16' W 117°03'512.7
2017-Oct-17 23:58N 30°20' W 117°05'712.7
2017-Oct-17 23:27N 30°26' W 117°06'912.8
2017-Oct-17 22:44N 30°35' W 117°09'1212.9
2017-Oct-17 21:49N 30°46' W 117°13'4412.4
2017-Oct-17 18:16N 31°29' W 117°27'912.1
2017-Oct-17 17:31N 31°38' W 117°29'012.4
2017-Oct-17 17:30N 31°38' W 117°29'812.2
2017-Oct-17 16:53N 31°45' W 117°32'511.9
2017-Oct-17 16:25N 31°51' W 117°34'511.8
2017-Oct-17 16:00N 31°55' W 117°35'611.9
2017-Oct-17 15:30N 32°01' W 117°37'611.8
2017-Oct-17 15:00N 32°07' W 117°39'611.4
2017-Oct-17 14:30N 32°12' W 117°40'611.3
2017-Oct-17 14:00N 32°18' W 117°42'611.4
2017-Oct-17 13:30N 32°23' W 117°44'611.4
2017-Oct-17 13:00N 32°29' W 117°46'611.4
2017-Oct-17 12:30N 32°34' W 117°48'611.3
2017-Oct-17 12:00N 32°40' W 117°50'611.4
2017-Oct-17 11:30N 32°45' W 117°52'611.3
2017-Oct-17 11:00N 32°50' W 117°54'611.2
2017-Oct-17 10:30N 32°56' W 117°56'611.4
2017-Oct-17 10:00N 33°01' W 117°59'611.7
2017-Oct-17 09:31N 33°06' W 118°01'611.5
2017-Oct-17 09:00N 33°12' W 118°03'611.6
2017-Oct-17 08:30N 33°17' W 118°06'611.8
2017-Oct-17 08:00N 33°23' W 118°08'612.0
2017-Oct-17 07:30N 33°29' W 118°10'611.8
2017-Oct-17 07:00N 33°34' W 118°13'510.7
2017-Oct-17 06:30N 33°39' W 118°11'4 8.6
2017-Oct-17 06:00N 33°44' W 118°11'2 3.8
2017-Oct-17 05:30N 33°44' W 118°13'0 0.1
2017-Oct-17 04:57N 33°44' W 118°13'0 0.1
2017-Oct-17 04:24N 33°44' W 118°13'0 0.0
2017-Oct-17 03:54N 33°44' W 118°13'0 0.1
2017-Oct-17 02:30N 33°44' W 118°13'0 0.1
2017-Oct-17 01:12N 33°44' W 118°13'0 0.2
2017-Oct-17 00:54N 33°44' W 118°13'0 0.0
2017-Oct-17 00:30N 33°44' W 118°13'0 0.0
2017-Oct-17 00:00N 33°44' W 118°13'0 0.0
2017-Oct-16 23:30N 33°44' W 118°13'0 0.0
2017-Oct-16 22:36N 33°44' W 118°13'0 0.0
2017-Oct-16 22:30N 33°44' W 118°13'0 0.0
2017-Oct-16 22:00N 33°44' W 118°13'0 0.0
2017-Oct-16 21:30N 33°44' W 118°13'0 0.0
2017-Oct-16 21:00N 33°44' W 118°13'0 0.0
2017-Oct-16 20:24N 33°44' W 118°13'0 0.0
2017-Oct-16 19:48N 33°44' W 118°13'0 0.0
2017-Oct-16 19:18N 33°44' W 118°13'0 0.0
2017-Oct-16 19:00N 33°44' W 118°13'0 0.0
2017-Oct-16 18:24N 33°44' W 118°13'0 0.3
2017-Oct-16 17:54N 33°44' W 118°13'0 0.0
2017-Oct-16 16:18N 33°44' W 118°13'0 0.2
2017-Oct-16 15:51N 33°44' W 118°13'2 4.3
2017-Oct-16 15:28N 33°44' W 118°11'5 7.6
2017-Oct-16 14:46N 33°38' W 118°10'5 6.9
2017-Oct-16 13:58N 33°33' W 118°09'4 7.6
2017-Oct-16 13:27N 33°29' W 118°07'510.3
2017-Oct-16 13:00N 33°25' W 118°05'611.0
2017-Oct-16 12:30N 33°20' W 118°03'611.7
2017-Oct-16 12:00N 33°14' W 118°03'611.6
2017-Oct-16 11:30N 33°08' W 118°03'611.5
2017-Oct-16 11:00N 33°03' W 118°02'611.3
2017-Oct-16 10:29N 32°57' W 118°02'4 8.2
2017-Oct-16 10:00N 32°53' W 118°03'713.3
2017-Oct-16 09:30N 32°46' W 118°03'713.2
2017-Oct-16 09:00N 32°41' W 118°07'713.5
2017-Oct-16 08:31N 32°36' W 118°13'713.8
2017-Oct-16 08:00N 32°31' W 118°19'612.7
2017-Oct-16 07:30N 32°27' W 118°25'3 5.3
2017-Oct-16 07:00N 32°25' W 118°27'612.7
2017-Oct-16 06:30N 32°21' W 118°32'713.7
2017-Oct-16 06:01N 32°16' W 118°38'713.5
2017-Oct-16 05:30N 32°11' W 118°44'713.6
2017-Oct-16 05:00N 32°07' W 118°50'713.8
2017-Oct-16 04:30N 32°02' W 118°56'713.8
2017-Oct-16 04:00N 31°60' W 119°03'713.8
2017-Oct-16 03:31N 31°58' W 119°11'714.0
2017-Oct-16 03:00N 31°56' W 119°19'713.8
2017-Oct-16 02:30N 31°54' W 119°27'713.9
2017-Oct-16 02:00N 31°52' W 119°35'714.1
2017-Oct-16 01:30N 31°50' W 119°43'913.8
2017-Oct-16 00:50N 31°47' W 119°53'513.7
2017-Oct-16 00:30N 31°46' W 119°58'713.4
2017-Oct-16 00:01N 31°44' W 120°06'611.5
2017-Oct-15 23:30N 31°43' W 120°12'510.8
2017-Oct-15 23:00N 31°41' W 120°18'610.9
2017-Oct-15 22:30N 31°40' W 120°25'511.3
2017-Oct-15 22:00N 31°38' W 120°31'611.2
2017-Oct-15 21:30N 31°36' W 120°37'611.1
2017-Oct-15 21:00N 31°35' W 120°43'510.9
2017-Oct-15 20:31N 31°33' W 120°50'511.0
2017-Oct-15 20:01N 31°32' W 120°56'811.1
2017-Oct-15 19:16N 31°30' W 121°05'311.4
2017-Oct-15 19:01N 31°29' W 121°08'611.1
2017-Oct-15 18:31N 31°27' W 121°15'611.2
2017-Oct-15 18:01N 31°26' W 121°21'611.4
2017-Oct-15 17:31N 31°24' W 121°27'611.2
2017-Oct-15 17:00N 31°23' W 121°34'511.1
2017-Oct-15 16:30N 31°21' W 121°40'611.2
2017-Oct-15 16:00N 31°19' W 121°46'511.0
2017-Oct-15 15:31N 31°18' W 121°52'511.0
2017-Oct-15 15:01N 31°16' W 121°58'1211.2
2017-Oct-15 13:59N 31°13' W 122°11'611.0
2017-Oct-15 13:23N 31°11' W 122°19'410.9
2017-Oct-15 13:00N 31°10' W 122°23'1410.3
2017-Oct-15 11:39N 31°08' W 122°39'211.3
2017-Oct-15 11:30N 31°09' W 122°41'1011.4
2017-Oct-15 10:38N 31°14' W 122°51'211.4
2017-Oct-15 10:30N 31°15' W 122°53'611.4
2017-Oct-15 10:01N 31°18' W 122°58'611.4
2017-Oct-15 09:30N 31°21' W 123°04'611.2
2017-Oct-15 09:00N 31°24' W 123°10'611.4
2017-Oct-15 08:31N 31°27' W 123°15'611.3
2017-Oct-15 08:01N 31°30' W 123°21'611.3
2017-Oct-15 07:31N 31°32' W 123°27'611.1
2017-Oct-15 07:01N 31°35' W 123°32'611.2
2017-Oct-15 06:31N 31°38' W 123°38'510.9
2017-Oct-15 06:01N 31°41' W 123°44'510.7
2017-Oct-15 05:31N 31°44' W 123°49'510.9
2017-Oct-15 05:00N 31°46' W 123°54'511.0
2017-Oct-15 04:30N 31°49' W 124°00'610.9
2017-Oct-15 03:59N 31°52' W 124°06'611.0
2017-Oct-15 03:25N 31°55' W 124°12'510.7
2017-Oct-15 03:00N 31°58' W 124°17'  
Track history (hours):
 
Tides and Currents Weather Stations Pressure Air Temp Water Temp Dewpoint Dewpoint Depression Visibility Wind Speed Wind Dir Waves Ship Positions

Hk Delight

Last reported at 2017-Oct-19 20:17 UTC. Time now 2017-Nov-22 02:06 UTC.
Position N 22°34' W 112°41'.
Warning: this ship's position is 33 days out of date.

Length 210 m; draft 11.4 m.

Type: Cargo ship. MMSI: 352452610.

Date/timePositionNaut miles runAvg speedWind from/ knotsBaromVisibWave heightAir tempDewpointWater temp
2017-Oct-19 20:17N 22°34' W 112°41'2712.1
2017-Oct-19 18:01N 22°58' W 112°57'012.0
2017-Oct-19 18:00N 22°58' W 112°57'4413.3
2017-Oct-19 14:39N 23°35' W 113°23'511.8
2017-Oct-19 14:12N 23°40' W 113°26'511.7
2017-Oct-19 13:47N 23°44' W 113°29'711.6
2017-Oct-19 13:11N 23°50' W 113°33'1611.4
2017-Oct-19 11:46N 24°04' W 113°42'1811.4
2017-Oct-19 10:11N 24°19' W 113°52'211.2
2017-Oct-19 10:00N 24°21' W 113°54'1811.1
2017-Oct-19 08:23N 24°36' W 114°04'511.0
2017-Oct-19 07:54N 24°41' W 114°07'511.3
2017-Oct-19 07:29N 24°44' W 114°10'510.5
2017-Oct-19 07:00N 24°49' W 114°13'1811.1
2017-Oct-19 05:21N 25°04' W 114°24'1111.1
2017-Oct-19 04:19N 25°14' W 114°31'4811.4
2017-Oct-19 00:05N 25°55' W 114°59'111.7
2017-Oct-19 00:00N 25°56' W 114°59'611.7
2017-Oct-18 23:30N 26°01' W 115°03'1111.7
2017-Oct-18 22:33N 26°10' W 115°09'112.0
2017-Oct-18 22:28N 26°11' W 115°10'3411.6
2017-Oct-18 19:34N 26°40' W 115°30'111.4
2017-Oct-18 19:29N 26°40' W 115°30'611.7
2017-Oct-18 19:01N 26°45' W 115°34'612.1
2017-Oct-18 18:30N 26°50' W 115°37'1112.1
2017-Oct-18 17:38N 26°59' W 115°44'212.3
2017-Oct-18 17:30N 27°01' W 115°45'612.4
2017-Oct-18 17:00N 27°06' W 115°48'1112.3
2017-Oct-18 16:05N 27°15' W 115°55'112.6
2017-Oct-18 15:59N 27°17' W 115°56'612.3
2017-Oct-18 15:30N 27°22' W 115°59'712.1
2017-Oct-18 14:56N 27°27' W 116°03'1111.5
2017-Oct-18 13:56N 27°37' W 116°10'16512.1
2017-Oct-18 00:19N 30°16' W 117°03'512.7
2017-Oct-17 23:58N 30°20' W 117°05'712.7
2017-Oct-17 23:27N 30°26' W 117°06'912.8
2017-Oct-17 22:44N 30°35' W 117°09'1212.9
2017-Oct-17 21:49N 30°46' W 117°13'4412.4
2017-Oct-17 18:16N 31°29' W 117°27'912.1
2017-Oct-17 17:31N 31°38' W 117°29'012.4
2017-Oct-17 17:30N 31°38' W 117°29'812.2
2017-Oct-17 16:53N 31°45' W 117°32'511.9
2017-Oct-17 16:25N 31°51' W 117°34'511.8
2017-Oct-17 16:00N 31°55' W 117°35'611.9
2017-Oct-17 15:30N 32°01' W 117°37'611.8
2017-Oct-17 15:00N 32°07' W 117°39'611.4
2017-Oct-17 14:30N 32°12' W 117°40'611.3
2017-Oct-17 14:00N 32°18' W 117°42'611.4
2017-Oct-17 13:30N 32°23' W 117°44'611.4
2017-Oct-17 13:00N 32°29' W 117°46'611.4
2017-Oct-17 12:30N 32°34' W 117°48'611.3
2017-Oct-17 12:00N 32°40' W 117°50'611.4
2017-Oct-17 11:30N 32°45' W 117°52'611.3
2017-Oct-17 11:00N 32°50' W 117°54'611.2
2017-Oct-17 10:30N 32°56' W 117°56'611.4
2017-Oct-17 10:00N 33°01' W 117°59'611.7
2017-Oct-17 09:31N 33°06' W 118°01'611.5
2017-Oct-17 09:00N 33°12' W 118°03'611.6
2017-Oct-17 08:30N 33°17' W 118°06'611.8
2017-Oct-17 08:00N 33°23' W 118°08'612.0
2017-Oct-17 07:30N 33°29' W 118°10'611.8
2017-Oct-17 07:00N 33°34' W 118°13'510.7
2017-Oct-17 06:30N 33°39' W 118°11'4 8.6
2017-Oct-17 06:00N 33°44' W 118°11'2 3.8
2017-Oct-17 05:30N 33°44' W 118°13'0 0.1
2017-Oct-17 04:57N 33°44' W 118°13'0 0.1
2017-Oct-17 04:24N 33°44' W 118°13'0 0.0
2017-Oct-17 03:54N 33°44' W 118°13'0 0.1
2017-Oct-17 02:30N 33°44' W 118°13'0 0.1
2017-Oct-17 01:12N 33°44' W 118°13'0 0.2
2017-Oct-17 00:54N 33°44' W 118°13'0 0.0
2017-Oct-17 00:30N 33°44' W 118°13'0 0.0
2017-Oct-17 00:00N 33°44' W 118°13'0 0.0
2017-Oct-16 23:30N 33°44' W 118°13'0 0.0
2017-Oct-16 22:36N 33°44' W 118°13'0 0.0
2017-Oct-16 22:30N 33°44' W 118°13'0 0.0
2017-Oct-16 22:00N 33°44' W 118°13'0 0.0
2017-Oct-16 21:30N 33°44' W 118°13'0 0.0
2017-Oct-16 21:00N 33°44' W 118°13'0 0.0
2017-Oct-16 20:24N 33°44' W 118°13'0 0.0
2017-Oct-16 19:48N 33°44' W 118°13'0 0.0
2017-Oct-16 19:18N 33°44' W 118°13'0 0.0
2017-Oct-16 19:00N 33°44' W 118°13'0 0.0
2017-Oct-16 18:24N 33°44' W 118°13'0 0.3
2017-Oct-16 17:54N 33°44' W 118°13'0 0.0
2017-Oct-16 16:18N 33°44' W 118°13'0 0.2
2017-Oct-16 15:51N 33°44' W 118°13'2 4.3
2017-Oct-16 15:28N 33°44' W 118°11'5 7.6
2017-Oct-16 14:46N 33°38' W 118°10'5 6.9
2017-Oct-16 13:58N 33°33' W 118°09'4 7.6
2017-Oct-16 13:27N 33°29' W 118°07'510.3
2017-Oct-16 13:00N 33°25' W 118°05'611.0
2017-Oct-16 12:30N 33°20' W 118°03'611.7
2017-Oct-16 12:00N 33°14' W 118°03'611.6
2017-Oct-16 11:30N 33°08' W 118°03'611.5
2017-Oct-16 11:00N 33°03' W 118°02'611.3
2017-Oct-16 10:29N 32°57' W 118°02'4 8.2
2017-Oct-16 10:00N 32°53' W 118°03'713.3
2017-Oct-16 09:30N 32°46' W 118°03'713.2
2017-Oct-16 09:00N 32°41' W 118°07'713.5
2017-Oct-16 08:31N 32°36' W 118°13'713.8
2017-Oct-16 08:00N 32°31' W 118°19'612.7
2017-Oct-16 07:30N 32°27' W 118°25'3 5.3
2017-Oct-16 07:00N 32°25' W 118°27'612.7
2017-Oct-16 06:30N 32°21' W 118°32'713.7
2017-Oct-16 06:01N 32°16' W 118°38'713.5
2017-Oct-16 05:30N 32°11' W 118°44'713.6
2017-Oct-16 05:00N 32°07' W 118°50'713.8
2017-Oct-16 04:30N 32°02' W 118°56'713.8
2017-Oct-16 04:00N 31°60' W 119°03'713.8
2017-Oct-16 03:31N 31°58' W 119°11'714.0
2017-Oct-16 03:00N 31°56' W 119°19'713.8
2017-Oct-16 02:30N 31°54' W 119°27'713.9
2017-Oct-16 02:00N 31°52' W 119°35'714.1
2017-Oct-16 01:30N 31°50' W 119°43'913.8
2017-Oct-16 00:50N 31°47' W 119°53'513.7
2017-Oct-16 00:30N 31°46' W 119°58'713.4
2017-Oct-16 00:01N 31°44' W 120°06'611.5
2017-Oct-15 23:30N 31°43' W 120°12'510.8
2017-Oct-15 23:00N 31°41' W 120°18'610.9
2017-Oct-15 22:30N 31°40' W 120°25'511.3
2017-Oct-15 22:00N 31°38' W 120°31'611.2
2017-Oct-15 21:30N 31°36' W 120°37'611.1
2017-Oct-15 21:00N 31°35' W 120°43'510.9
2017-Oct-15 20:31N 31°33' W 120°50'511.0
2017-Oct-15 20:01N 31°32' W 120°56'811.1
2017-Oct-15 19:16N 31°30' W 121°05'311.4
2017-Oct-15 19:01N 31°29' W 121°08'611.1
2017-Oct-15 18:31N 31°27' W 121°15'611.2
2017-Oct-15 18:01N 31°26' W 121°21'611.4
2017-Oct-15 17:31N 31°24' W 121°27'611.2
2017-Oct-15 17:00N 31°23' W 121°34'511.1
2017-Oct-15 16:30N 31°21' W 121°40'611.2
2017-Oct-15 16:00N 31°19' W 121°46'511.0
2017-Oct-15 15:31N 31°18' W 121°52'511.0
2017-Oct-15 15:01N 31°16' W 121°58'1211.2
2017-Oct-15 13:59N 31°13' W 122°11'611.0
2017-Oct-15 13:23N 31°11' W 122°19'410.9
2017-Oct-15 13:00N 31°10' W 122°23'1410.3
2017-Oct-15 11:39N 31°08' W 122°39'211.3
2017-Oct-15 11:30N 31°09' W 122°41'1011.4
2017-Oct-15 10:38N 31°14' W 122°51'211.4
2017-Oct-15 10:30N 31°15' W 122°53'611.4
2017-Oct-15 10:01N 31°18' W 122°58'611.4
2017-Oct-15 09:30N 31°21' W 123°04'611.2
2017-Oct-15 09:00N 31°24' W 123°10'611.4
2017-Oct-15 08:31N 31°27' W 123°15'611.3
2017-Oct-15 08:01N 31°30' W 123°21'611.3
2017-Oct-15 07:31N 31°32' W 123°27'611.1
2017-Oct-15 07:01N 31°35' W 123°32'611.2
2017-Oct-15 06:31N 31°38' W 123°38'510.9
2017-Oct-15 06:01N 31°41' W 123°44'510.7
2017-Oct-15 05:31N 31°44' W 123°49'510.9
2017-Oct-15 05:00N 31°46' W 123°54'511.0
2017-Oct-15 04:30N 31°49' W 124°00'610.9
2017-Oct-15 03:59N 31°52' W 124°06'611.0
2017-Oct-15 03:25N 31°55' W 124°12'510.7
2017-Oct-15 03:00N 31°58' W 124°17'  

Dump ship's entire track history